Time;durP1;ratioP1;P1;durP2;ratioP2;P2;SDS_P1;SDS_P2;PMS_P1;PMS_P2;Temp;Humidity;BMP_temperature;BMP_pressure;BME280_temperature;BME280_humidity;BME280_pressure;Samples;Min_cycle;Max_cycle;Signal;HPM_P1;HPM_P2
2022/10/01 00:01:58;;;;;;;13.35;9.07;;;;;;;10.60;92.63;96042.75;4926400;29;20063;-82
2022/10/01 00:04:32;;;;;;;13.82;8.55;;;;;;;10.68;92.47;96050.06;4926053;29;20079;-81
2022/10/01 00:07:09;;;;;;;14.68;8.75;;;;;;;10.65;92.42;96045.28;4925229;29;20048;-81
2022/10/01 00:09:41;;;;;;;11.15;8.20;;;;;;;10.66;91.85;96052.31;4907391;29;20048;-81
2022/10/01 00:12:08;;;;;;;13.75;8.82;;;;;;;10.67;91.84;96053.91;4925048;29;20088;-80
2022/10/01 00:14:38;;;;;;;14.98;9.02;;;;;;;10.66;91.93;96055.06;4924693;29;20052;-81
2022/10/01 00:17:07;;;;;;;15.48;9.48;;;;;;;10.66;92.03;96041.44;4924681;29;20056;-81
2022/10/01 00:19:34;;;;;;;11.15;7.93;;;;;;;10.75;92.17;96054.19;4924049;29;20058;-81
2022/10/01 00:22:01;;;;;;;13.65;8.68;;;;;;;10.75;92.07;96046.03;4924691;29;20522;-82
2022/10/01 00:24:28;;;;;;;11.38;8.05;;;;;;;10.76;91.84;96050.38;4922389;29;20522;-81
2022/10/01 00:26:56;;;;;;;14.55;8.95;;;;;;;10.75;92.02;96046.03;4924691;29;20056;-81
2022/10/01 00:29:23;;;;;;;12.07;8.00;;;;;;;10.71;91.85;96043.19;4924406;29;20063;-82
2022/10/01 00:31:52;;;;;;;10.02;7.68;;;;;;;10.75;91.54;96054.19;4924231;29;20052;-82
2022/10/01 00:34:19;;;;;;;15.20;8.65;;;;;;;10.75;91.62;96049.56;4923928;29;20469;-81
2022/10/01 00:36:48;;;;;;;10.38;7.90;;;;;;;10.75;91.35;96059.66;4923309;29;20127;-81
2022/10/01 00:39:17;;;;;;;17.55;9.75;;;;;;;10.76;91.57;96053.91;4922594;29;20119;-81
2022/10/01 00:41:45;;;;;;;13.77;9.30;;;;;;;10.71;91.38;96040.47;4923564;29;20051;-83
2022/10/01 00:44:33;;;;;;;11.90;8.00;;;;;;;10.72;91.68;96044.78;4923578;29;20052;-81
2022/10/01 00:47:11;;;;;;;12.80;8.45;;;;;;;10.74;91.63;96042.50;4923213;29;20055;-80
2022/10/01 00:49:39;;;;;;;14.65;9.13;;;;;;;10.67;91.76;96053.91;4923346;29;20158;-81
2022/10/01 00:52:12;;;;;;;13.40;9.60;;;;;;;10.60;92.06;96053.63;4903947;29;20049;-81
2022/10/01 00:54:52;;;;;;;10.88;7.30;;;;;;;10.42;93.03;96057.50;4904495;29;20048;-81
2022/10/01 00:57:21;;;;;;;12.38;9.02;;;;;;;10.41;93.20;96058.63;4888031;29;20057;-81
2022/10/01 00:59:50;;;;;;;23.13;10.75;;;;;;;10.39;93.42;96053.53;4904327;29;20052;-80
2022/10/01 01:02:18;;;;;;;16.77;10.95;;;;;;;10.37;93.50;96050.31;4904292;29;20055;-81
2022/10/01 01:04:47;;;;;;;14.60;9.90;;;;;;;10.43;93.48;96048.22;4903945;29;20074;-80
2022/10/01 01:07:14;;;;;;;15.30;10.18;;;;;;;10.42;93.09;96047.41;4903721;29;20060;-80
2022/10/01 01:09:46;;;;;;;15.82;10.93;;;;;;;10.42;93.30;96049.34;4905048;29;20048;-80
2022/10/01 01:12:25;;;;;;;17.25;11.63;;;;;;;10.33;93.60;96045.84;4922168;29;20047;-82
2022/10/01 01:15:01;;;;;;;15.18;11.23;;;;;;;10.36;93.67;96042.47;4920879;29;20091;-81
2022/10/01 01:17:37;;;;;;;16.02;11.55;;;;;;;10.40;93.81;96032.56;4904129;29;20056;-81
2022/10/01 01:20:24;;;;;;;19.45;11.77;;;;;;;10.04;95.37;96036.44;4921304;29;20062;-80
2022/10/01 01:23:06;;;;;;;19.27;13.52;;;;;;;9.89;96.72;96037.72;4921185;29;20488;-81
2022/10/01 01:25:41;;;;;;;24.70;14.18;;;;;;;9.86;97.27;96037.53;4904045;29;20048;-80
2022/10/01 01:28:22;;;;;;;20.10;14.35;;;;;;;9.73;98.90;96035.81;4921239;29;20040;-81
2022/10/01 01:30:51;;;;;;;21.55;14.50;;;;;;;9.64;98.75;96039.31;4922267;29;20056;-81
2022/10/01 01:33:22;;;;;;;22.55;14.60;;;;;;;9.67;99.36;96033.25;4922869;29;20178;-81
2022/10/01 01:36:03;;;;;;;24.15;16.35;;;;;;;9.47;99.99;96033.06;4923239;29;20052;-80
2022/10/01 01:38:36;;;;;;;26.55;15.05;;;;;;;9.67;99.53;96030.53;4914492;29;20071;-82
2022/10/01 01:41:06;;;;;;;26.85;16.05;;;;;;;9.66;99.58;96028.94;4921947;29;20048;-82
2022/10/01 01:43:39;;;;;;;25.40;16.48;;;;;;;9.72;99.45;96032.28;4923003;29;20072;-82
2022/10/01 01:46:09;;;;;;;26.70;16.80;;;;;;;9.80;98.61;96025.22;4922930;29;20567;-80
2022/10/01 01:48:40;;;;;;;27.52;17.30;;;;;;;9.80;98.62;96030.66;4923274;29;20493;-81
2022/10/01 01:51:12;;;;;;;30.52;17.70;;;;;;;9.89;97.98;96031.47;4923281;29;20060;-82
2022/10/01 01:53:43;;;;;;;27.50;17.30;;;;;;;9.93;97.80;96029.72;4922732;29;20075;-80
2022/10/01 01:56:13;;;;;;;23.67;16.83;;;;;;;10.02;97.31;96027.75;4924519;29;20048;-81
2022/10/01 01:58:44;;;;;;;25.58;16.80;;;;;;;10.09;97.00;96021.84;4923827;29;20052;-82
2022/10/01 02:01:33;;;;;;;23.38;16.05;;;;;;;10.18;96.69;96020.72;4925530;29;20080;-81
2022/10/01 02:04:00;;;;;;;21.50;15.70;;;;;;;10.22;96.25;96011.91;4928027;29;20044;-83
2022/10/01 02:06:41;;;;;;;28.40;17.67;;;;;;;10.20;95.65;96021.19;4912431;29;20076;-82
2022/10/01 02:09:16;;;;;;;30.92;18.20;;;;;;;10.12;95.57;96022.00;4929451;29;20062;-82
2022/10/01 02:11:53;;;;;;;27.30;17.25;;;;;;;10.12;95.34;96015.75;4928980;29;20130;-80
2022/10/01 02:14:32;;;;;;;27.70;17.55;;;;;;;10.12;94.91;96022.00;4929892;29;20052;-82
2022/10/01 02:17:05;;;;;;;27.73;17.63;;;;;;;10.09;94.85;96028.09;4930832;29;20428;-82
2022/10/01 02:19:37;;;;;;;27.85;16.50;;;;;;;10.10;94.90;96029.69;4898956;29;20420;-82
2022/10/01 02:22:11;;;;;;;25.13;16.27;;;;;;;10.08;94.43;96029.22;4932312;29;20063;-82
2022/10/01 02:24:43;;;;;;;31.60;19.67;;;;;;;9.81;95.60;96027.63;4913225;29;20565;-82
2022/10/01 02:27:15;;;;;;;31.92;18.13;;;;;;;9.83;95.68;96030.03;4897095;29;20049;-83
2022/10/01 02:29:46;;;;;;;26.83;16.70;;;;;;;9.91;95.13;96037.38;4915346;29;20485;-83
2022/10/01 02:32:16;;;;;;;28.08;17.70;;;;;;;9.89;94.73;96031.47;4933550;29;20409;-82
2022/10/01 02:34:45;;;;;;;28.85;17.38;;;;;;;9.82;95.24;96028.44;4901558;29;20056;-80
2022/10/01 02:37:12;;;;;;;29.83;18.92;;;;;;;9.74;95.33;96029.25;4934158;29;20063;-83
2022/10/01 02:39:43;;;;;;;31.98;19.60;;;;;;;9.70;95.50;96031.00;4918294;29;20056;-83
2022/10/01 02:42:14;;;;;;;30.58;18.33;;;;;;;9.73;95.50;96030.38;4935276;29;20134;-82
2022/10/01 02:44:44;;;;;;;31.17;19.05;;;;;;;9.68;95.01;96025.88;4935284;29;20064;-83
2022/10/01 02:47:19;;;;;;;32.42;18.70;;;;;;;9.62;95.78;96019.00;4918796;29;20048;-82
2022/10/01 02:49:47;;;;;;;37.47;19.67;;;;;;;9.57;95.34;96017.25;4878462;29;1227023;-82
2022/10/01 02:52:22;;;;;;;29.80;17.30;;;;;;;9.64;94.93;96017.56;4939526;29;20048;-82
2022/10/01 02:54:54;;;;;;;27.30;16.33;;;;;;;9.69;94.78;96019.31;4939051;29;20130;-82
2022/10/01 02:57:26;;;;;;;27.88;17.27;;;;;;;9.69;94.47;96011.16;4937184;29;20120;-83
2022/10/01 02:59:57;;;;;;;28.73;17.00;;;;;;;9.71;94.46;96010.84;4936740;29;20063;-82
2022/10/01 03:02:28;;;;;;;24.23;15.23;;;;;;;9.71;93.77;96010.84;4937301;29;20111;-81
2022/10/01 03:04:56;;;;;;;29.73;17.58;;;;;;;9.68;93.46;96009.56;4935980;29;20115;-80
2022/10/01 03:07:38;;;;;;;28.45;16.13;;;;;;;9.65;93.44;96007.47;4933247;29;20044;-81
2022/10/01 03:10:07;;;;;;;25.63;16.20;;;;;;;9.61;93.27;96007.34;4933754;29;20078;-79
2022/10/01 03:12:35;;;;;;;26.20;16.30;;;;;;;9.61;93.01;96001.09;4933331;29;20044;-79
2022/10/01 03:15:03;;;;;;;29.02;17.27;;;;;;;9.57;93.20;96000.94;4932327;29;20127;-80
2022/10/01 03:17:30;;;;;;;28.73;16.48;;;;;;;9.58;93.54;95999.81;4931678;29;20172;-81
2022/10/01 03:19:59;;;;;;;29.33;16.65;;;;;;;9.59;93.98;95997.88;4929166;29;20145;-82
2022/10/01 03:22:28;;;;;;;26.88;16.38;;;;;;;9.57;93.95;96005.56;4927895;29;20139;-81
2022/10/01 03:24:55;;;;;;;25.17;16.60;;;;;;;9.57;94.14;96000.16;4931698;29;20186;-81
2022/10/01 03:27:22;;;;;;;27.55;15.90;;;;;;;9.57;94.15;96006.38;4932227;29;20054;-81
2022/10/01 03:29:51;;;;;;;28.25;16.92;;;;;;;9.55;93.98;96008.63;4931187;29;20146;-83
2022/10/01 03:32:22;;;;;;;27.45;17.17;;;;;;;9.55;93.66;96003.19;4927235;29;20056;-81
2022/10/01 03:34:49;;;;;;;24.92;16.23;;;;;;;9.52;93.40;96011.97;4922425;29;20062;-81
2022/10/01 03:37:19;;;;;;;29.38;16.48;;;;;;;9.50;93.12;96008.78;4921370;29;20424;-80
2022/10/01 03:39:46;;;;;;;26.27;16.23;;;;;;;9.45;92.99;96003.50;4922050;29;20052;-81
2022/10/01 03:42:14;;;;;;;29.38;16.65;;;;;;;9.41;92.56;96002.53;4905130;29;20048;-79
2022/10/01 03:44:42;;;;;;;28.63;16.30;;;;;;;9.37;92.65;96005.09;4923318;29;20115;-80
2022/10/01 03:47:09;;;;;;;26.20;15.82;;;;;;;9.32;92.35;96004.44;4926436;29;20136;-82
2022/10/01 03:49:37;;;;;;;25.48;15.73;;;;;;;9.25;92.55;95988.63;4926280;29;20048;-81
2022/10/01 03:52:06;;;;;;;26.17;16.33;;;;;;;9.11;92.56;95986.03;4927383;29;20473;-81
2022/10/01 03:54:34;;;;;;;27.80;16.67;;;;;;;9.01;92.55;95983.63;4927026;29;20071;-81
2022/10/01 03:57:01;;;;;;;26.00;16.58;;;;;;;8.90;93.00;95982.31;4929797;29;20068;-82
2022/10/01 03:59:35;;;;;;;29.88;16.92;;;;;;;8.88;93.06;95984.56;4931346;29;20044;-83
2022/10/01 04:02:02;;;;;;;27.75;16.80;;;;;;;8.87;92.96;95982.94;4913735;29;20059;-84
2022/10/01 04:04:28;;;;;;;22.83;15.25;;;;;;;8.90;92.45;95982.31;4929324;29;20080;-82
2022/10/01 04:06:58;;;;;;;25.05;15.73;;;;;;;8.90;92.47;95987.75;4934772;29;20052;-83
2022/10/01 04:09:29;;;;;;;21.60;14.05;;;;;;;8.92;93.00;95990.94;4934087;29;20097;-83
2022/10/01 04:11:56;;;;;;;27.30;14.90;;;;;;;8.97;93.25;95988.06;4934330;29;20104;-82
2022/10/01 04:14:24;;;;;;;20.65;13.93;;;;;;;8.96;93.55;95986.47;4936599;29;20116;-87
2022/10/01 04:19:44;;;;;;;18.88;12.35;;;;;;;9.00;93.76;95990.16;4938704;29;20048;-85
2022/10/01 04:22:22;;;;;;;18.80;11.88;;;;;;;9.01;93.18;95990.97;4917644;29;20119;-87
2022/10/01 04:24:52;;;;;;;20.60;11.75;;;;;;;8.96;93.01;95991.91;4914984;29;20056;-85
2022/10/01 04:27:58;;;;;;;20.52;12.00;;;;;;;8.94;93.07;95994.16;4916023;29;20048;-86
2022/10/01 04:30:26;;;;;;;17.17;11.02;;;;;;;8.92;93.26;95990.94;4916221;29;20065;-86
2022/10/01 04:32:55;;;;;;;18.90;10.50;;;;;;;8.91;93.31;95989.34;5058542;23;20074;-82
2022/10/01 04:35:23;;;;;;;17.27;10.50;;;;;;;8.91;93.59;95992.06;4960024;28;20051;-81
2022/10/01 04:38:03;;;;;;;20.75;10.70;;;;;;;8.86;93.94;95994.91;4935266;28;20114;-82
2022/10/01 04:40:33;;;;;;;17.73;9.75;;;;;;;8.84;94.02;95991.72;4941443;29;20051;-82
2022/10/01 04:43:00;;;;;;;18.75;10.68;;;;;;;8.85;94.09;95996.03;4953513;29;20051;-81
2022/10/01 04:45:34;;;;;;;17.52;10.50;;;;;;;8.89;94.34;95991.59;4936043;29;20048;-82
2022/10/01 04:48:01;;;;;;;;;;;;;;;8.88;94.78;95990.00;4923202;29;20044;-82
2022/10/01 04:50:30;;;;;;;13.85;8.98;;;;;;;8.88;94.84;96000.84;4953074;29;20239;-82
2022/10/01 04:53:01;;;;;;;19.83;10.95;;;;;;;8.84;94.91;95994.44;4930556;29;20048;-82
2022/10/01 04:58:12;;;;;;;22.58;10.95;;;;;;;8.78;94.93;96009.28;4931825;29;20063;-81
2022/10/01 05:00:43;;;;;;;16.80;9.35;;;;;;;8.78;95.09;96004.66;4941336;29;20103;-81
2022/10/01 05:03:16;;;;;;;15.80;9.40;;;;;;;8.82;94.58;96002.09;4957022;28;20039;-82
2022/10/01 05:05:50;;;;;;;;;;;;;;;8.75;94.89;96007.19;4963699;28;20067;-82
2022/10/01 05:08:18;;;;;;;26.90;11.73;;;;;;;8.62;94.84;96003.47;4965004;28;20021;-82
2022/10/01 05:10:44;;;;;;;21.50;11.10;;;;;;;8.53;94.67;96003.44;4967013;28;20055;-81
2022/10/01 05:13:11;;;;;;;23.80;10.77;;;;;;;8.54;94.73;96002.31;4948214;28;20066;-81
2022/10/01 05:15:38;;;;;;;19.90;9.15;;;;;;;8.61;94.13;95999.97;4942643;29;20051;-82
2022/10/01 05:18:04;;;;;;;23.42;9.95;;;;;;;8.65;94.39;95996.59;4924201;29;20046;-82
2022/10/01 05:20:32;;;;;;;25.15;10.68;;;;;;;8.61;94.55;96002.69;4938008;28;20048;-81
2022/10/01 05:22:59;;;;;;;13.90;8.93;;;;;;;8.68;94.26;96001.41;4958639;23;20578;-82
2022/10/01 05:25:27;;;;;;;16.58;9.35;;;;;;;8.72;94.42;95996.94;4958325;28;20051;-83
2022/10/01 05:28:03;;;;;;;14.20;8.45;;;;;;;8.80;94.66;96001.63;4965618;28;20066;-85
2022/10/01 05:30:30;;;;;;;12.90;9.75;;;;;;;8.73;94.30;95995.84;4966061;28;20043;-84
2022/10/01 05:32:58;;;;;;;14.52;9.10;;;;;;;8.80;94.62;96001.63;4945086;29;20062;-80
2022/10/01 05:35:25;;;;;;;14.00;8.90;;;;;;;8.85;94.82;95996.03;4961037;28;20047;-84
2022/10/01 05:37:56;;;;;;;23.63;9.52;;;;;;;8.85;94.70;95996.03;5037411;23;20313;-83
2022/10/01 05:43:48;;;;;;;11.98;8.38;;;;;;;8.96;94.52;96002.78;5068025;23;20063;-86
2022/10/01 05:46:15;;;;;;;20.20;10.13;;;;;;;8.89;94.53;95999.72;4948920;29;20044;-87
2022/10/01 05:48:42;;;;;;;14.85;8.93;;;;;;;8.94;94.96;96005.00;4930049;29;20043;-85
2022/10/01 05:51:09;;;;;;;24.75;10.85;;;;;;;9.03;94.60;96010.44;4928686;29;20070;-85
2022/10/01 05:53:37;;;;;;;14.32;9.48;;;;;;;9.01;94.64;96007.25;4948541;29;20040;-85
2022/10/01 05:56:09;;;;;;;14.63;8.65;;;;;;;8.99;94.48;96013.00;4950387;29;20055;-85
2022/10/01 05:58:36;;;;;;;11.70;8.35;;;;;;;9.04;94.53;96018.31;4910663;29;20044;-87
2022/10/01 06:01:04;;;;;;;13.35;8.93;;;;;;;9.13;94.45;96023.72;4951841;29;20075;-85
2022/10/01 06:03:32;;;;;;;12.30;7.97;;;;;;;9.23;94.76;96026.16;4952834;29;20072;-85
2022/10/01 06:05:59;;;;;;;15.45;9.35;;;;;;;9.26;94.64;96022.00;4952164;29;20106;-84
2022/10/01 06:08:27;;;;;;;14.43;8.50;;;;;;;9.39;94.17;96026.50;4934457;29;20491;-87
2022/10/01 06:11:00;;;;;;;34.10;20.15;;;;;;;9.34;94.18;96019.31;4949843;29;20057;-86
2022/10/01 06:13:28;;;;;;;16.38;9.57;;;;;;;9.39;94.15;96015.63;4934608;29;20055;-86
2022/10/01 06:15:55;;;;;;;14.23;9.00;;;;;;;9.31;93.92;96013.72;4951980;29;20044;-87
2022/10/01 06:18:23;;;;;;;13.63;9.38;;;;;;;9.36;94.09;96016.28;4951731;29;21881;-86
2022/10/01 06:20:50;;;;;;;15.25;9.68;;;;;;;9.20;93.88;96024.09;4951921;29;20058;-87
2022/10/01 06:23:17;;;;;;;15.43;9.13;;;;;;;9.24;94.47;96024.22;4952146;29;20059;-86
2022/10/01 06:25:44;;;;;;;13.07;8.63;;;;;;;9.20;94.95;96023.28;5126838;23;20112;-86
2022/10/01 06:28:13;;;;;;;19.33;9.98;;;;;;;9.28;94.76;96036.06;4952600;28;20156;-86
2022/10/01 06:30:40;;;;;;;20.38;10.45;;;;;;;9.41;94.20;96032.44;4999022;23;20062;-86
2022/10/01 06:33:09;;;;;;;20.60;10.23;;;;;;;9.41;93.70;96033.22;4948856;29;20048;-84
2022/10/01 06:35:42;;;;;;;12.63;8.50;;;;;;;9.52;93.51;96028.28;4950212;29;20112;-86
2022/10/01 06:38:09;;;;;;;19.05;9.52;;;;;;;9.60;93.41;96026.66;4950134;29;20055;-87
2022/10/01 06:40:37;;;;;;;14.00;8.25;;;;;;;9.65;92.03;96023.78;4951565;29;20070;-87
2022/10/01 06:43:06;;;;;;;12.68;8.18;;;;;;;9.66;91.70;96026.22;4948432;29;20061;-85
2022/10/01 06:45:38;;;;;;;11.35;7.68;;;;;;;9.78;91.01;96038.38;4948957;29;20054;-85
2022/10/01 06:48:13;;;;;;;13.25;8.07;;;;;;;9.93;90.00;96035.16;5258333;23;20051;-87
2022/10/01 06:50:44;;;;;;;11.90;7.65;;;;;;;9.96;88.49;96034.50;4954213;29;20057;-87
2022/10/01 06:53:11;;;;;;;12.85;7.22;;;;;;;9.84;88.69;96034.34;4973041;29;20083;-87
2022/10/01 06:55:39;;;;;;;13.27;8.13;;;;;;;9.78;88.61;96031.00;4970608;29;20055;-86
2022/10/01 06:58:07;;;;;;;17.10;8.52;;;;;;;9.75;89.28;96033.56;4971969;28;20122;-87
2022/10/01 07:00:37;;;;;;;16.35;7.35;;;;;;;9.77;89.19;96036.78;4971192;29;20052;-88
2022/10/01 07:03:09;;;;;;;14.45;7.88;;;;;;;9.86;90.16;96037.53;4972138;29;20063;-87
2022/10/01 07:05:36;;;;;;;11.88;7.95;;;;;;;9.90;89.25;96035.78;4972111;28;20078;-87
2022/10/01 07:08:05;;;;;;;13.65;7.95;;;;;;;9.81;89.46;96032.28;4960594;29;20122;-88
2022/10/01 07:10:33;;;;;;;12.70;7.90;;;;;;;9.83;90.66;96030.03;4955549;29;20101;-88
2022/10/01 07:13:07;;;;;;;19.45;8.75;;;;;;;9.68;91.09;96029.41;4940326;29;20054;-88
2022/10/01 07:15:34;;;;;;;15.27;8.10;;;;;;;9.85;90.14;96025.06;4955972;29;20050;-87
2022/10/01 07:18:01;;;;;;;13.20;8.13;;;;;;;9.91;89.63;96031.94;4971217;28;20066;-88
2022/10/01 07:20:28;;;;;;;15.60;8.05;;;;;;;10.11;89.20;96020.41;4950545;29;20051;-88
2022/10/01 07:22:57;;;;;;;13.75;8.35;;;;;;;10.19;88.00;96022.31;4956983;29;20058;-88
2022/10/01 07:25:26;;;;;;;11.98;8.00;;;;;;;10.20;88.29;96021.19;4957469;29;20083;-87
2022/10/01 07:27:55;;;;;;;14.75;7.78;;;;;;;10.10;88.27;96018.81;4950375;29;20082;-88
2022/10/01 07:30:23;;;;;;;16.15;8.15;;;;;;;10.29;88.28;96015.78;4950483;29;20051;-87
2022/10/01 07:32:50;;;;;;;12.93;7.55;;;;;;;10.31;87.56;96013.50;4967872;29;20082;-87
2022/10/01 07:35:18;;;;;;;15.55;8.20;;;;;;;10.40;87.60;96008.84;4953330;29;20136;-87
2022/10/01 07:37:45;;;;;;;12.80;8.23;;;;;;;10.43;86.24;96002.72;4967028;28;20063;-82
2022/10/01 07:40:15;;;;;;;12.48;7.28;;;;;;;10.56;85.79;96002.88;4961721;29;20051;-85
2022/10/01 07:42:43;;;;;;;13.73;7.63;;;;;;;10.63;85.03;96001.22;4945443;29;20393;-82
2022/10/01 07:45:10;;;;;;;12.82;7.90;;;;;;;10.72;84.35;96001.19;4939864;29;20111;-81
2022/10/01 07:47:37;;;;;;;10.82;7.88;;;;;;;10.64;83.89;96010.19;4940848;29;20159;-83
2022/10/01 07:50:06;;;;;;;13.95;8.18;;;;;;;10.74;83.43;96015.28;4945300;29;20043;-82
2022/10/01 07:52:33;;;;;;;13.27;7.97;;;;;;;10.83;83.42;96012.53;4923180;29;20056;-84
2022/10/01 07:55:00;;;;;;;14.68;7.50;;;;;;;10.77;83.59;96005.66;4929907;29;20065;-84
2022/10/01 07:57:28;;;;;;;11.38;7.55;;;;;;;10.90;83.14;96004.63;4935157;29;20107;-83
2022/10/01 07:59:59;;;;;;;12.77;7.45;;;;;;;10.85;82.29;96005.59;4912278;29;20119;-81
2022/10/01 08:02:25;;;;;;;13.80;7.38;;;;;;;10.87;82.25;95999.84;4944932;29;20047;-82
2022/10/01 08:07:36;;;;;;;10.30;6.55;;;;;;;11.09;81.78;95988.66;4930424;29;20055;-80
2022/10/01 08:10:04;;;;;;;11.98;6.35;;;;;;;11.24;81.55;95977.19;4944250;29;20056;-82
2022/10/01 08:12:31;;;;;;;10.93;6.40;;;;;;;11.32;81.31;95980.19;4944548;29;20067;-82
2022/10/01 08:15:01;;;;;;;11.30;6.43;;;;;;;11.22;80.61;95987.63;4944729;29;20052;-84
2022/10/01 08:17:27;;;;;;;9.73;5.75;;;;;;;11.28;79.30;95979.28;4925935;29;20578;-82
2022/10/01 08:19:54;;;;;;;12.98;5.68;;;;;;;11.24;79.06;95971.75;4941106;29;20048;-79
2022/10/01 08:22:21;;;;;;;10.00;5.18;;;;;;;11.32;79.19;95980.19;4944778;29;20055;-86
2022/10/01 08:24:47;;;;;;;9.38;5.10;;;;;;;11.48;78.77;95982.00;4967193;29;20057;-86
2022/10/01 08:27:15;;;;;;;11.48;4.80;;;;;;;11.37;77.10;95982.72;4952667;29;20090;-85
2022/10/01 08:29:42;;;;;;;8.63;4.20;;;;;;;11.37;77.27;95972.59;4969489;29;20559;-86
2022/10/01 08:32:11;;;;;;;11.05;4.70;;;;;;;11.43;76.44;95962.28;4967620;29;20055;-86
2022/10/01 08:34:38;;;;;;;8.43;3.72;;;;;;;11.45;74.99;95973.69;4950856;29;20047;-86
2022/10/01 08:37:05;;;;;;;9.75;3.65;;;;;;;11.54;75.25;95968.97;4933466;29;20051;-86
2022/10/01 08:39:32;;;;;;;5.50;3.15;;;;;;;11.63;74.57;95977.84;4946946;29;20134;-85
2022/10/01 08:42:05;;;;;;;6.07;3.05;;;;;;;11.61;74.04;95971.16;4949328;29;20071;-83
2022/10/01 08:44:40;;;;;;;9.55;3.05;;;;;;;11.67;75.08;95964.34;4969603;29;20054;-85
2022/10/01 08:47:12;;;;;;;3.72;2.60;;;;;;;11.87;75.26;95958.09;4936890;29;20062;-84
2022/10/01 08:49:43;;;;;;;4.03;2.60;;;;;;;11.90;74.32;95951.16;4968303;29;20062;-82
2022/10/01 08:52:20;;;;;;;5.88;3.05;;;;;;;11.83;73.78;95950.91;4968996;29;20047;-83
2022/10/01 08:54:54;;;;;;;5.65;2.60;;;;;;;11.80;73.37;95943.38;4952833;29;20055;-88
2022/10/01 08:57:22;;;;;;;;;;;;;;;11.82;73.08;95943.88;4969904;29;20422;-86
2022/10/01 08:59:53;;;;;;;5.70;2.58;;;;;;;11.88;72.77;95953.44;4966821;29;19923;-85
2022/10/01 09:02:24;;;;;;;5.20;2.15;;;;;;;11.81;73.44;95951.22;4933291;29;20764;-87
2022/10/01 09:04:54;;;;;;;4.70;2.05;;;;;;;11.71;72.36;95952.44;4955027;29;20071;-87
2022/10/01 09:07:44;;;;;;;6.47;2.00;;;;;;;11.74;72.55;95957.25;4969784;28;20054;-87
2022/10/01 09:10:28;;;;;;;5.00;1.92;;;;;;;11.85;71.39;95938.56;4968930;29;20047;-87
2022/10/01 09:13:05;;;;;;;;;;;;;;;11.90;71.70;95934.78;4970954;29;20138;-86
2022/10/01 09:15:41;;;;;;;5.40;2.05;;;;;;;11.85;71.73;95937.72;4970031;29;19929;-84
2022/10/01 09:18:19;;;;;;;5.03;1.98;;;;;;;12.05;71.48;95936.88;4969657;29;20047;-88
2022/10/01 09:20:51;;;;;;;4.57;2.08;;;;;;;11.95;71.51;95931.84;4969833;29;20055;-85
2022/10/01 09:23:24;;;;;;;6.85;2.05;;;;;;;11.85;71.61;95930.38;4950805;29;20051;-88
2022/10/01 09:25:52;;;;;;;4.50;2.03;;;;;;;11.96;72.59;95928.81;4952239;29;20111;-87
2022/10/01 09:31:21;;;;;;;8.45;2.50;;;;;;;11.79;70.76;95928.13;4949716;29;20107;-86
2022/10/01 09:33:56;;;;;;;4.88;1.75;;;;;;;11.82;70.46;95925.56;4949271;29;20075;-86
2022/10/01 09:39:16;;;;;;;16.45;3.60;;;;;;;11.95;70.44;95937.31;4300836;26;20063;-82
2022/10/01 09:44:36;;;;;;;9.07;2.30;;;;;;;11.96;70.53;95922.56;4950886;29;20067;-83
2022/10/01 09:50:15;;;;;;;7.75;2.20;;;;;;;12.09;70.69;95929.63;4974091;23;20078;-86
2022/10/01 09:56:18;;;;;;;8.40;2.50;;;;;;;12.26;68.14;95943.06;4957581;28;20115;-83
2022/10/01 09:58:51;;;;;;;16.33;3.30;;;;;;;12.19;66.46;95942.03;4951530;29;20068;-82
2022/10/01 10:01:28;;;;;;;13.77;3.15;;;;;;;12.24;66.08;95945.34;4943786;29;20058;-82
2022/10/01 10:03:57;;;;;;;9.55;2.10;;;;;;;12.17;67.55;95945.13;4949366;29;20110;-82
2022/10/01 10:06:29;;;;;;;15.40;3.13;;;;;;;12.11;68.88;95949.22;4941086;29;20111;-80
2022/10/01 10:08:59;;;;;;;13.60;3.03;;;;;;;11.98;68.91;95959.28;4924113;29;20056;-82
2022/10/01 10:11:30;;;;;;;12.40;2.42;;;;;;;11.87;70.45;95951.84;4939255;29;20059;-81
2022/10/01 10:13:59;;;;;;;11.65;2.65;;;;;;;11.86;71.27;95958.44;4941178;29;20055;-81
2022/10/01 10:16:33;;;;;;;6.28;2.10;;;;;;;11.84;73.15;95947.06;4953386;29;20056;-82
2022/10/01 10:19:09;;;;;;;6.22;2.00;;;;;;;11.85;74.82;95951.38;4953789;29;20079;-82
2022/10/01 10:21:37;;;;;;;6.63;2.15;;;;;;;11.67;75.89;95954.22;4955385;28;20062;-82
2022/10/01 10:24:24;;;;;;;3.75;1.60;;;;;;;11.81;75.47;95953.97;4952789;28;20056;-84
2022/10/01 10:26:56;;;;;;;8.15;2.40;;;;;;;11.68;77.52;95960.47;4956571;28;20044;-82
2022/10/01 10:29:30;;;;;;;24.75;4.70;;;;;;;11.56;78.29;95955.78;4965092;23;20067;-86
2022/10/01 10:31:59;;;;;;;2.33;1.58;;;;;;;11.50;80.06;95951.66;4908462;29;20152;-84
2022/10/01 10:34:32;;;;;;;6.70;2.45;;;;;;;11.54;81.54;95966.25;4906722;29;20048;-81
2022/10/01 10:37:05;;;;;;;2.85;1.80;;;;;;;11.28;82.32;95958.25;4916187;29;20040;-85
2022/10/01 10:39:34;;;;;;;4.77;2.00;;;;;;;11.35;83.49;95963.16;4912569;29;20559;-86
2022/10/01 10:42:02;;;;;;;3.42;1.80;;;;;;;11.33;84.90;95965.41;4912662;29;20064;-88
2022/10/01 10:44:34;;;;;;;8.63;2.80;;;;;;;11.29;86.00;95969.94;4898443;29;20489;-82
2022/10/01 10:47:04;;;;;;;8.18;2.42;;;;;;;11.33;85.57;95973.59;4913460;29;20047;-81
2022/10/01 10:49:36;;;;;;;5.55;2.10;;;;;;;11.27;86.94;95973.00;4927860;29;20054;-84
2022/10/01 10:52:18;;;;;;;8.73;3.38;;;;;;;11.16;88.49;95982.69;4912287;29;20091;-83
2022/10/01 10:54:48;;;;;;;4.85;2.08;;;;;;;11.20;89.32;95973.53;4911221;29;20117;-87
2022/10/01 10:57:21;;;;;;;10.23;2.80;;;;;;;11.22;89.84;95981.34;4910316;29;20064;-82
2022/10/01 10:59:56;;;;;;;6.20;2.70;;;;;;;11.24;90.38;95990.03;4908686;29;20056;-83
2022/10/01 11:02:24;;;;;;;4.90;2.42;;;;;;;11.20;91.25;95984.44;4891399;29;20045;-85
2022/10/01 11:04:53;;;;;;;3.97;2.20;;;;;;;11.06;90.87;95972.97;4899199;29;20072;-85
2022/10/01 11:07:25;;;;;;;7.90;2.97;;;;;;;10.97;91.80;95974.97;4915818;29;20059;-86
2022/10/01 11:10:15;;;;;;;4.32;2.40;;;;;;;10.96;92.41;95974.16;5048535;23;20043;-84
2022/10/01 11:12:56;;;;;;;6.05;2.58;;;;;;;10.94;93.49;95970.97;5036652;23;20051;-87
2022/10/01 11:15:40;;;;;;;12.52;3.92;;;;;;;10.86;94.61;95968.31;4947228;29;20058;-80
2022/10/01 11:18:26;;;;;;;7.07;3.03;;;;;;;10.51;95.60;95971.19;4945400;29;20151;-83
2022/10/01 11:21:10;;;;;;;6.65;3.17;;;;;;;10.43;96.14;95967.34;4946784;29;20087;-84
2022/10/01 11:24:09;;;;;;;7.30;2.97;;;;;;;10.45;97.31;95969.78;4947045;29;20051;-86
2022/10/01 11:26:45;;;;;;;6.25;3.40;;;;;;;10.47;97.79;95972.94;4926970;29;20084;-86
2022/10/01 11:29:25;;;;;;;10.82;3.85;;;;;;;10.45;98.32;95969.78;4928729;29;20052;-87
2022/10/01 11:32:02;;;;;;;7.15;3.28;;;;;;;10.43;98.81;95978.25;4928518;29;20056;-86
2022/10/01 11:34:49;;;;;;;8.25;3.65;;;;;;;10.35;99.04;95967.41;4941304;29;20050;-87
2022/10/01 11:37:33;;;;;;;5.72;3.53;;;;;;;10.25;100.00;95970.47;4952011;29;20086;-88
2022/10/01 11:40:12;;;;;;;9.45;4.10;;;;;;;10.01;100.00;95977.22;4931500;29;20138;-83
2022/10/01 11:42:42;;;;;;;8.63;4.20;;;;;;;9.97;100.00;95970.84;4941266;29;20055;-83
2022/10/01 11:45:20;;;;;;;10.80;4.95;;;;;;;10.00;100.00;95981.06;4941503;29;20695;-85
2022/10/01 11:47:52;;;;;;;11.25;5.50;;;;;;;9.95;100.00;95973.06;4925883;29;20080;-88
2022/10/01 11:50:24;;;;;;;11.50;5.67;;;;;;;9.89;100.00;95974.38;4929131;29;20076;-83
2022/10/01 11:52:57;;;;;;;8.57;5.03;;;;;;;9.84;100.00;95978.03;4941700;29;20056;-85
2022/10/01 12:01:10;;;;;;;6.75;4.03;;;;;;;9.86;100.00;95980.44;4949372;29;20058;-88
2022/10/01 12:03:48;;;;;;;7.38;3.72;;;;;;;9.57;100.00;95983.84;4953866;29;20044;-90
2022/10/01 12:06:17;;;;;;;6.82;3.60;;;;;;;9.51;100.00;95996.78;4952989;29;20052;-86
2022/10/01 12:08:52;;;;;;;7.57;3.78;;;;;;;9.39;100.00;95989.25;4953861;29;20082;-87
2022/10/01 12:11:28;;;;;;;8.70;4.03;;;;;;;9.44;100.00;95999.16;4936591;29;20096;-87
2022/10/01 12:14:02;;;;;;;7.95;4.85;;;;;;;9.49;100.00;95999.00;4953262;29;20111;-88
2022/10/01 12:16:33;;;;;;;;;;;;;;;9.43;100.00;95991.34;4934497;29;20052;-87
2022/10/01 12:19:02;;;;;;;;;;;;;;;9.37;100.00;95993.41;4936053;29;19933;-87
2022/10/01 12:21:33;;;;;;;;;;;;;;;9.37;100.00;95996.13;4954070;29;20009;-87